Time;durP1;ratioP1;P1;durP2;ratioP2;P2;SDS_P1;SDS_P2;PMS_P1;PMS_P2;Temp;Humidity;BMP_temperature;BMP_pressure;BME280_temperature;BME280_humidity;BME280_pressure;Samples;Min_cycle;Max_cycle;Signal;HPM_P1;HPM_P2
2021/04/07 00:01:49;;;;;;;2.10;0.53;;;2.90;99.80;;;;;;5084679;28;20315;-60
2021/04/07 00:04:15;;;;;;;2.40;0.97;;;2.90;99.90;;;;;;5075497;28;20181;-60
2021/04/07 00:06:42;;;;;;;1.50;0.30;;;2.90;99.90;;;;;;5078106;28;20198;-60
2021/04/07 00:09:08;;;;;;;1.65;0.50;;;2.90;99.90;;;;;;5079561;28;20448;-61
2021/04/07 00:11:34;;;;;;;3.03;1.15;;;2.90;99.90;;;;;;5070863;28;20249;-60
2021/04/07 00:14:02;;;;;;;2.92;1.40;;;2.90;99.90;;;;;;5083746;28;20181;-61
2021/04/07 00:16:27;;;;;;;1.80;0.50;;;2.90;99.90;;;;;;5081455;28;20181;-62
2021/04/07 00:18:53;;;;;;;1.87;0.60;;;2.90;99.90;;;;;;5075319;28;20181;-60
2021/04/07 00:21:19;;;;;;;2.57;1.27;;;2.90;99.90;;;;;;5077832;28;20651;-60
2021/04/07 00:23:44;;;;;;;1.77;0.60;;;2.80;99.90;;;;;;5081419;28;20184;-60
2021/04/07 00:26:10;;;;;;;2.93;0.63;;;2.80;99.90;;;;;;5078088;28;20201;-60
2021/04/07 00:28:35;;;;;;;1.50;0.20;;;2.90;99.90;;;;;;5077782;28;20200;-60
2021/04/07 00:31:01;;;;;;;2.20;0.70;;;2.90;99.90;;;;;;5076809;28;20188;-60
2021/04/07 00:33:27;;;;;;;1.50;0.20;;;2.90;99.90;;;;;;5070758;28;20605;-60
2021/04/07 00:35:52;;;;;;;2.40;1.10;;;2.90;99.90;;;;;;5085122;28;20173;-60
2021/04/07 00:38:18;;;;;;;1.80;0.50;;;2.80;99.90;;;;;;5074814;28;20266;-60
2021/04/07 00:40:44;;;;;;;1.83;0.80;;;2.90;99.90;;;;;;5072227;28;20185;-60
2021/04/07 00:43:09;;;;;;;1.50;0.30;;;2.90;99.90;;;;;;5073891;28;20203;-60
2021/04/07 00:45:35;;;;;;;2.93;0.30;;;2.90;99.90;;;;;;5074070;28;21015;-60
2021/04/07 00:48:02;;;;;;;2.87;1.23;;;3.00;99.90;;;;;;5077479;28;20342;-60
2021/04/07 00:50:29;;;;;;;1.48;0.20;;;2.90;99.90;;;;;;5085888;28;20426;-60
2021/04/07 00:52:55;;;;;;;1.95;0.55;;;2.90;99.90;;;;;;5053474;28;20271;-61
2021/04/07 00:55:24;;;;;;;6.10;1.23;;;2.80;99.90;;;;;;5089714;28;20206;-61
2021/04/07 00:57:50;;;;;;;2.78;1.05;;;2.80;99.90;;;;;;5085272;28;20553;-60
2021/04/07 01:00:17;;;;;;;1.80;0.50;;;2.80;99.90;;;;;;5071809;28;20208;-60
2021/04/07 01:02:44;;;;;;;1.73;0.68;;;2.80;99.90;;;;;;5079259;28;20190;-61
2021/04/07 01:05:10;;;;;;;1.70;0.45;;;2.80;99.90;;;;;;5075998;28;20185;-60
2021/04/07 01:07:36;;;;;;;1.50;0.20;;;2.80;99.90;;;;;;5070325;28;20749;-61
2021/04/07 01:10:07;;;;;;;2.43;0.77;;;2.80;99.90;;;;;;5081716;28;20212;-61
2021/04/07 01:12:33;;;;;;;1.50;0.20;;;2.80;99.90;;;;;;5076993;28;20937;-60
2021/04/07 01:14:58;;;;;;;2.53;1.10;;;2.90;99.90;;;;;;5073340;28;20184;-60
2021/04/07 01:17:24;;;;;;;2.00;1.00;;;2.90;99.90;;;;;;5079951;28;20282;-60
2021/04/07 01:19:50;;;;;;;1.50;0.20;;;2.90;99.90;;;;;;5076410;28;20585;-60
2021/04/07 01:22:17;;;;;;;1.50;0.20;;;2.90;99.90;;;;;;5069094;28;20615;-60
2021/04/07 01:24:43;;;;;;;1.60;0.30;;;2.90;99.90;;;;;;5070145;28;20180;-60
2021/04/07 01:27:08;;;;;;;2.53;1.30;;;2.90;99.90;;;;;;5053422;28;20288;-60
2021/04/07 01:29:34;;;;;;;3.73;1.37;;;2.90;99.90;;;;;;5075508;28;20221;-60
2021/04/07 01:31:59;;;;;;;1.50;0.40;;;2.90;99.90;;;;;;5076847;28;20184;-60
2021/04/07 01:34:26;;;;;;;1.93;0.60;;;2.90;99.90;;;;;;5074551;28;20196;-61
2021/04/07 01:36:53;;;;;;;1.48;0.22;;;2.90;99.90;;;;;;5080077;28;20201;-61
2021/04/07 01:39:20;;;;;;;2.70;1.15;;;2.90;99.90;;;;;;5081137;28;20185;-60
2021/04/07 01:41:47;;;;;;;1.50;0.20;;;2.80;99.90;;;;;;5070815;28;20204;-60
2021/04/07 01:44:15;;;;;;;1.80;0.77;;;2.90;99.90;;;;;;5080490;28;20619;-60
2021/04/07 01:46:46;;;;;;;3.40;1.50;;;2.90;99.90;;;;;;5075693;28;20249;-60
2021/04/07 01:49:13;;;;;;;1.50;0.30;;;2.80;99.90;;;;;;5065954;28;20604;-60
2021/04/07 01:51:39;;;;;;;2.50;1.15;;;2.80;99.90;;;;;;5075023;28;20706;-61
2021/04/07 01:54:13;;;;;;;1.80;0.43;;;2.80;99.90;;;;;;5080948;28;20710;-60
2021/04/07 01:56:50;;;;;;;2.22;0.60;;;2.80;99.90;;;;;;5070231;28;20205;-60
2021/04/07 01:59:17;;;;;;;2.45;0.65;;;2.80;99.90;;;;;;5075954;28;20639;-60
2021/04/07 02:01:43;;;;;;;1.85;0.68;;;2.90;99.90;;;;;;5078572;28;20195;-61
2021/04/07 02:04:09;;;;;;;1.80;0.90;;;2.80;99.90;;;;;;5071360;28;20185;-60
2021/04/07 02:06:34;;;;;;;2.00;0.57;;;2.90;99.90;;;;;;5071287;28;20290;-60
2021/04/07 02:09:00;;;;;;;1.50;0.30;;;2.80;99.90;;;;;;5076642;28;20180;-60
2021/04/07 02:11:25;;;;;;;2.20;1.10;;;2.80;99.90;;;;;;5072001;28;20180;-60
2021/04/07 02:13:52;;;;;;;2.53;1.03;;;2.80;99.90;;;;;;5069592;28;20228;-60
2021/04/07 02:16:17;;;;;;;3.42;0.95;;;2.80;99.90;;;;;;5071596;28;20271;-60
2021/04/07 02:18:43;;;;;;;4.70;1.63;;;2.70;99.90;;;;;;5067882;28;20655;-60
2021/04/07 02:21:10;;;;;;;5.57;2.20;;;2.60;99.90;;;;;;5083438;28;20229;-60
2021/04/07 02:23:36;;;;;;;3.05;1.35;;;2.60;99.90;;;;;;5078812;28;20176;-60
2021/04/07 02:26:05;;;;;;;5.20;1.42;;;2.60;99.90;;;;;;5075178;28;20241;-60
2021/04/07 02:28:31;;;;;;;2.60;1.65;;;2.60;99.90;;;;;;5086407;28;20203;-60
2021/04/07 02:30:57;;;;;;;3.30;1.30;;;2.60;99.90;;;;;;5077535;28;20188;-60
2021/04/07 02:33:22;;;;;;;9.63;2.43;;;2.60;99.90;;;;;;5080184;28;20563;-60
2021/04/07 02:35:48;;;;;;;2.63;1.23;;;2.50;99.90;;;;;;5078529;28;20172;-61
2021/04/07 02:38:14;;;;;;;1.90;0.60;;;2.50;99.90;;;;;;5083197;28;20181;-61
2021/04/07 02:40:40;;;;;;;2.70;1.33;;;2.50;99.90;;;;;;5085053;28;20422;-63
2021/04/07 02:43:05;;;;;;;1.50;0.30;;;2.60;99.90;;;;;;5086340;28;20184;-60
2021/04/07 02:45:31;;;;;;;2.70;1.60;;;2.60;99.90;;;;;;5073845;28;20692;-60
2021/04/07 02:47:57;;;;;;;2.23;0.87;;;2.60;99.90;;;;;;5081131;28;20212;-60
2021/04/07 02:50:22;;;;;;;1.70;0.70;;;2.60;99.90;;;;;;5076310;28;20192;-60
2021/04/07 02:52:48;;;;;;;2.30;0.80;;;2.50;99.90;;;;;;5062460;28;20295;-60
2021/04/07 02:55:13;;;;;;;1.90;0.80;;;2.50;99.90;;;;;;5076729;28;20181;-60
2021/04/07 02:57:40;;;;;;;2.63;1.27;;;2.60;99.90;;;;;;5074130;28;20241;-60
2021/04/07 03:00:07;;;;;;;3.10;1.02;;;2.60;99.90;;;;;;5086663;28;20443;-60
2021/04/07 03:02:33;;;;;;;2.33;1.20;;;2.60;99.90;;;;;;5092558;28;20207;-60
2021/04/07 03:04:59;;;;;;;2.17;0.60;;;2.60;99.90;;;;;;5077322;28;20180;-60
2021/04/07 03:07:26;;;;;;;3.20;2.07;;;2.60;99.90;;;;;;5087280;28;20208;-61
2021/04/07 03:09:51;;;;;;;2.38;1.25;;;2.60;99.90;;;;;;5093014;28;20200;-62
2021/04/07 03:12:17;;;;;;;2.80;1.47;;;2.50;99.90;;;;;;5097093;28;20226;-66
2021/04/07 03:14:43;;;;;;;2.37;0.90;;;2.50;99.90;;;;;;5098148;28;20190;-61
2021/04/07 03:17:09;;;;;;;2.00;0.83;;;2.50;99.90;;;;;;5093834;28;20706;-61
2021/04/07 03:19:35;;;;;;;1.70;0.73;;;2.50;99.90;;;;;;5078777;28;20192;-60
2021/04/07 03:22:00;;;;;;;1.50;0.20;;;2.50;99.90;;;;;;5077983;28;20185;-60
2021/04/07 03:24:26;;;;;;;3.13;0.80;;;2.50;99.90;;;;;;5068565;28;20643;-60
2021/04/07 03:26:51;;;;;;;2.00;0.90;;;2.50;99.90;;;;;;5077960;28;20230;-61
2021/04/07 03:29:17;;;;;;;4.00;2.93;;;2.50;99.90;;;;;;5082977;28;20193;-60
2021/04/07 03:31:42;;;;;;;1.63;0.30;;;2.50;99.90;;;;;;5086498;28;20204;-61
2021/04/07 03:34:08;;;;;;;1.90;0.47;;;2.50;99.90;;;;;;5088619;28;20227;-60
2021/04/07 03:36:33;;;;;;;1.47;0.30;;;2.60;99.90;;;;;;5101924;28;20220;-61
2021/04/07 03:38:59;;;;;;;2.87;1.10;;;2.60;99.90;;;;;;5094198;28;20245;-60
2021/04/07 03:41:26;;;;;;;1.77;0.60;;;2.60;99.90;;;;;;5097411;28;20203;-61
2021/04/07 03:43:52;;;;;;;2.80;1.27;;;2.50;99.90;;;;;;5104641;28;20226;-60
2021/04/07 03:46:18;;;;;;;2.13;0.93;;;2.50;99.90;;;;;;5107030;28;20259;-61
2021/04/07 03:48:43;;;;;;;1.70;0.60;;;2.50;99.90;;;;;;5103721;28;20201;-61
2021/04/07 03:51:09;;;;;;;3.13;1.10;;;2.50;99.90;;;;;;5098638;28;20185;-62
2021/04/07 03:53:34;;;;;;;2.47;1.10;;;2.50;99.90;;;;;;5096258;28;20438;-61
2021/04/07 03:56:01;;;;;;;4.27;0.70;;;2.50;99.90;;;;;;5095465;28;20196;-61
2021/04/07 03:58:27;;;;;;;1.50;0.20;;;2.50;99.90;;;;;;5107719;28;20239;-61
2021/04/07 04:00:53;;;;;;;1.70;0.50;;;2.50;99.90;;;;;;5098480;28;20188;-61
2021/04/07 04:03:21;;;;;;;4.80;1.73;;;2.50;99.90;;;;;;5094569;28;20177;-61
2021/04/07 04:05:47;;;;;;;2.72;1.40;;;2.50;99.90;;;;;;5103509;28;20183;-60
2021/04/07 04:08:13;;;;;;;2.35;0.63;;;2.50;99.90;;;;;;5085302;28;20212;-60
2021/04/07 04:10:39;;;;;;;2.67;1.30;;;2.50;99.90;;;;;;5083869;28;20177;-60
2021/04/07 04:13:05;;;;;;;1.70;0.57;;;2.60;99.90;;;;;;5075377;28;20431;-61
2021/04/07 04:15:32;;;;;;;1.75;0.63;;;2.60;99.90;;;;;;5081058;28;20423;-61
2021/04/07 04:17:57;;;;;;;2.83;1.35;;;2.60;99.90;;;;;;5076774;28;20266;-61
2021/04/07 04:20:23;;;;;;;3.77;0.83;;;2.70;99.90;;;;;;5085884;28;20647;-61
2021/04/07 04:22:48;;;;;;;1.50;0.30;;;2.60;99.90;;;;;;5089532;28;20260;-60
2021/04/07 04:25:17;;;;;;;3.97;1.50;;;2.70;99.90;;;;;;5094890;28;20200;-59
2021/04/07 04:27:43;;;;;;;7.05;1.45;;;2.60;99.90;;;;;;5096953;28;20208;-64
2021/04/07 04:30:11;;;;;;;2.07;0.60;;;2.60;99.90;;;;;;5092772;28;20179;-60
2021/04/07 04:32:37;;;;;;;3.65;1.80;;;2.60;99.90;;;;;;5083244;28;20498;-60
2021/04/07 04:35:03;;;;;;;2.40;1.20;;;2.50;99.90;;;;;;5092224;28;20189;-60
2021/04/07 04:37:29;;;;;;;15.57;1.70;;;2.50;99.90;;;;;;5103366;28;20611;-60
2021/04/07 04:39:55;;;;;;;1.57;0.30;;;2.50;99.90;;;;;;5103315;28;20255;-60
2021/04/07 04:42:20;;;;;;;1.60;0.43;;;2.50;99.90;;;;;;5095860;28;20430;-59
2021/04/07 04:44:46;;;;;;;3.40;1.00;;;2.60;99.90;;;;;;5099278;28;20185;-59
2021/04/07 04:47:11;;;;;;;3.03;1.00;;;2.50;99.90;;;;;;5076887;28;20216;-60
2021/04/07 04:49:37;;;;;;;1.50;0.30;;;2.40;99.90;;;;;;5072905;28;20371;-60
2021/04/07 04:52:02;;;;;;;2.80;0.77;;;2.50;99.90;;;;;;5082625;28;20188;-59
2021/04/07 04:54:28;;;;;;;1.60;0.40;;;2.40;99.90;;;;;;5070942;28;20197;-59
2021/04/07 04:56:53;;;;;;;2.10;0.97;;;2.50;99.90;;;;;;5069907;28;20208;-60
2021/04/07 04:59:19;;;;;;;1.97;0.50;;;2.50;99.90;;;;;;5088672;28;20549;-60
2021/04/07 05:01:44;;;;;;;3.97;1.30;;;2.50;99.90;;;;;;5076810;28;20216;-59
2021/04/07 05:04:10;;;;;;;2.00;0.50;;;2.50;99.90;;;;;;5072908;28;20189;-60
2021/04/07 05:06:36;;;;;;;3.20;0.60;;;2.50;99.90;;;;;;5081586;28;20209;-60
2021/04/07 05:09:04;;;;;;;4.70;1.48;;;2.50;99.90;;;;;;5073348;28;20273;-60
2021/04/07 05:11:32;;;;;;;3.25;0.80;;;2.50;99.90;;;;;;5080734;28;20181;-60
2021/04/07 05:14:01;;;;;;;5.75;1.52;;;2.50;99.90;;;;;;5078846;28;20330;-60
2021/04/07 05:16:27;;;;;;;1.50;0.20;;;2.40;99.90;;;;;;5068408;28;20278;-60
2021/04/07 05:18:52;;;;;;;1.50;0.20;;;2.40;99.90;;;;;;5077988;28;20655;-59
2021/04/07 05:21:18;;;;;;;10.33;1.30;;;2.50;99.90;;;;;;5068859;28;20207;-59
2021/04/07 05:23:43;;;;;;;3.57;1.50;;;2.50;99.90;;;;;;5068730;28;20204;-60
2021/04/07 05:26:09;;;;;;;2.87;1.07;;;2.50;99.90;;;;;;5070273;28;20208;-60
2021/04/07 05:28:35;;;;;;;1.50;0.27;;;2.50;99.90;;;;;;5053051;28;20832;-59
2021/04/07 05:31:03;;;;;;;3.33;0.70;;;2.50;99.90;;;;;;5072795;28;20290;-60
2021/04/07 05:33:31;;;;;;;2.88;0.68;;;2.50;99.90;;;;;;5074784;28;20238;-59
2021/04/07 05:35:58;;;;;;;2.38;1.40;;;2.40;99.90;;;;;;5072194;28;20709;-60
2021/04/07 05:38:24;;;;;;;2.97;0.93;;;2.40;99.90;;;;;;5069586;28;20642;-59
2021/04/07 05:40:52;;;;;;;2.73;2.10;;;2.40;99.90;;;;;;5079087;28;20204;-59
2021/04/07 05:43:18;;;;;;;5.95;3.42;;;2.50;99.90;;;;;;5052913;28;20439;-59
2021/04/07 05:45:43;;;;;;;2.00;1.00;;;2.40;99.90;;;;;;5069507;28;20259;-59
2021/04/07 05:48:09;;;;;;;1.50;0.20;;;2.40;99.90;;;;;;5074110;28;20203;-60
2021/04/07 05:50:39;;;;;;;1.50;0.20;;;2.40;99.90;;;;;;5069540;28;20191;-59
2021/04/07 05:53:06;;;;;;;1.85;0.40;;;2.50;99.90;;;;;;5075633;28;20430;-59
2021/04/07 05:55:32;;;;;;;1.55;0.32;;;2.50;99.90;;;;;;5074120;28;20172;-60
2021/04/07 05:58:03;;;;;;;3.90;0.80;;;2.50;99.90;;;;;;5075334;28;20265;-60
2021/04/07 06:00:29;;;;;;;2.53;0.55;;;2.40;99.90;;;;;;5083601;28;20420;-60
2021/04/07 06:02:58;;;;;;;1.80;0.27;;;2.50;99.90;;;;;;5079833;28;20224;-59
2021/04/07 06:05:26;;;;;;;4.53;0.82;;;2.50;99.90;;;;;;5059010;28;20442;-60
2021/04/07 06:07:52;;;;;;;3.25;1.17;;;2.50;99.90;;;;;;5063320;28;20209;-59
2021/04/07 06:10:18;;;;;;;1.60;0.70;;;2.50;99.90;;;;;;5079138;28;20189;-60
2021/04/07 06:12:43;;;;;;;3.87;1.13;;;2.50;99.90;;;;;;5072084;28;20467;-60
2021/04/07 06:15:10;;;;;;;3.70;0.93;;;2.40;99.90;;;;;;5081230;28;20631;-61
2021/04/07 06:17:37;;;;;;;1.60;0.60;;;2.50;99.90;;;;;;5076196;28;20228;-60
2021/04/07 06:20:06;;;;;;;2.35;0.65;;;2.50;99.90;;;;;;5073174;28;20203;-60
2021/04/07 06:22:31;;;;;;;1.70;0.40;;;2.60;99.90;;;;;;5078735;28;20670;-60
2021/04/07 06:24:57;;;;;;;1.50;0.30;;;2.60;99.90;;;;;;5076578;28;20196;-59
2021/04/07 06:27:22;;;;;;;3.03;0.80;;;2.60;99.90;;;;;;5072288;28;20265;-59
2021/04/07 06:29:48;;;;;;;2.47;0.30;;;2.60;99.90;;;;;;5079389;28;20666;-59
2021/04/07 06:32:14;;;;;;;5.87;1.10;;;2.70;99.90;;;;;;5075025;28;20429;-60
2021/04/07 06:34:39;;;;;;;2.80;0.80;;;2.60;99.70;;;;;;5080545;28;20573;-59
2021/04/07 06:37:05;;;;;;;2.10;0.70;;;2.60;99.60;;;;;;5077549;28;20227;-59
2021/04/07 06:39:31;;;;;;;3.93;1.10;;;2.60;99.90;;;;;;5081817;28;20210;-60
2021/04/07 06:41:57;;;;;;;6.82;0.90;;;2.60;99.70;;;;;;5075198;28;20193;-59
2021/04/07 06:44:23;;;;;;;3.20;1.63;;;2.70;99.80;;;;;;5077477;28;20208;-60
2021/04/07 06:46:52;;;;;;;1.60;0.32;;;2.70;99.70;;;;;;5072970;28;20215;-60
2021/04/07 06:49:20;;;;;;;3.20;0.88;;;2.80;99.90;;;;;;5085974;28;20186;-59
2021/04/07 06:51:45;;;;;;;6.70;1.00;;;2.70;99.50;;;;;;5078824;28;20172;-60
2021/04/07 06:54:12;;;;;;;3.67;0.70;;;2.80;99.60;;;;;;5073417;28;20251;-59
2021/04/07 06:56:38;;;;;;;2.95;0.60;;;2.80;99.50;;;;;;5084756;28;20188;-59
2021/04/07 06:59:04;;;;;;;2.30;1.05;;;2.90;99.70;;;;;;5084949;28;20176;-60
2021/04/07 07:01:30;;;;;;;3.40;0.80;;;2.90;99.50;;;;;;5077817;28;20235;-60
2021/04/07 07:03:56;;;;;;;4.70;0.97;;;2.90;99.30;;;;;;5077400;28;20200;-59
2021/04/07 07:06:22;;;;;;;1.45;0.20;;;3.00;99.30;;;;;;5077151;28;20295;-59
2021/04/07 07:08:48;;;;;;;1.50;0.20;;;3.00;99.30;;;;;;5076764;28;20228;-59
2021/04/07 07:11:18;;;;;;;2.45;0.73;;;3.10;99.40;;;;;;5080913;28;20185;-59
2021/04/07 07:13:44;;;;;;;3.08;1.38;;;3.10;99.40;;;;;;5079780;28;20176;-59
2021/04/07 07:16:10;;;;;;;1.48;0.20;;;3.10;99.40;;;;;;5074948;28;20528;-60
2021/04/07 07:18:42;;;;;;;2.22;0.68;;;3.10;99.60;;;;;;5084801;28;20203;-59
2021/04/07 07:21:14;;;;;;;2.03;0.60;;;3.10;99.70;;;;;;5074080;28;20202;-59
2021/04/07 07:23:44;;;;;;;4.15;1.02;;;3.10;99.90;;;;;;5080818;28;20663;-59
2021/04/07 07:26:11;;;;;;;4.90;1.65;;;3.00;99.90;;;;;;5075322;28;20263;-60
2021/04/07 07:28:46;;;;;;;7.70;2.70;;;3.00;99.90;;;;;;5073240;28;20223;-60
2021/04/07 07:31:30;;;;;;;1.73;0.45;;;2.90;99.90;;;;;;5074223;28;20749;-59
2021/04/07 07:33:58;;;;;;;1.45;0.20;;;2.90;99.90;;;;;;5075631;28;20195;-59
2021/04/07 07:36:25;;;;;;;2.78;1.15;;;3.00;99.90;;;;;;5069110;28;20249;-59
2021/04/07 07:38:56;;;;;;;1.42;0.20;;;2.80;99.90;;;;;;5076076;28;20648;-60
2021/04/07 07:41:37;;;;;;;2.13;0.68;;;2.80;99.90;;;;;;5048731;28;20185;-59
2021/04/07 07:44:04;;;;;;;3.17;1.48;;;2.90;99.90;;;;;;5086411;28;20172;-62
2021/04/07 07:46:31;;;;;;;6.07;1.20;;;2.80;99.90;;;;;;5098603;28;20244;-61
2021/04/07 07:48:59;;;;;;;5.13;1.98;;;2.70;99.90;;;;;;5106092;28;20181;-61
2021/04/07 07:51:26;;;;;;;11.32;4.25;;;2.60;99.90;;;;;;5094470;28;20180;-61
2021/04/07 07:53:54;;;;;;;3.25;1.02;;;2.60;99.90;;;;;;5091077;28;20204;-59
2021/04/07 07:56:22;;;;;;;2.15;0.75;;;2.60;99.90;;;;;;5070810;28;20343;-61
2021/04/07 07:58:50;;;;;;;2.90;1.40;;;2.60;99.90;;;;;;5078905;28;20231;-60
2021/04/07 08:01:18;;;;;;;2.00;0.50;;;2.60;99.90;;;;;;5075881;28;20711;-61
2021/04/07 08:03:44;;;;;;;4.25;2.15;;;2.60;99.90;;;;;;5085502;28;20199;-60
2021/04/07 08:06:14;;;;;;;9.43;2.97;;;2.60;99.90;;;;;;5082017;28;20185;-60
2021/04/07 08:08:40;;;;;;;2.55;2.08;;;2.60;99.90;;;;;;5084776;28;20253;-61
2021/04/07 08:11:10;;;;;;;1.60;0.50;;;2.70;99.90;;;;;;5084914;28;20196;-62
2021/04/07 08:13:51;;;;;;;1.70;0.60;;;2.80;99.90;;;;;;5094281;28;20173;-69
2021/04/07 08:16:20;;;;;;;5.78;2.45;;;2.90;99.90;;;;;;5093224;28;20172;-60
2021/04/07 08:18:47;;;;;;;1.50;0.20;;;3.00;99.90;;;;;;5104453;28;20192;-60
2021/04/07 08:21:15;;;;;;;1.88;0.73;;;3.10;99.90;;;;;;5091529;28;20202;-61
2021/04/07 08:23:43;;;;;;;1.60;0.52;;;3.20;99.90;;;;;;5093242;28;20210;-60
2021/04/07 08:26:10;;;;;;;2.47;1.20;;;3.40;99.90;;;;;;5069222;28;20203;-61
2021/04/07 08:28:40;;;;;;;1.50;0.20;;;3.50;99.90;;;;;;5075074;28;20204;-60
2021/04/07 08:31:10;;;;;;;2.38;0.80;;;3.50;99.90;;;;;;5079667;28;20621;-60
2021/04/07 08:33:36;;;;;;;2.50;1.40;;;3.50;99.90;;;;;;5085710;28;20207;-60
2021/04/07 08:36:02;;;;;;;1.60;0.40;;;3.50;99.90;;;;;;5074123;28;20239;-60
2021/04/07 08:38:32;;;;;;;3.20;1.40;;;3.60;99.90;;;;;;5082271;28;20220;-60
2021/04/07 08:41:12;;;;;;;1.65;0.47;;;3.70;99.90;;;;;;5078547;28;20185;-59
2021/04/07 08:43:38;;;;;;;3.22;1.40;;;3.70;99.90;;;;;;5071876;28;20660;-60
2021/04/07 08:46:15;;;;;;;11.43;0.98;;;3.70;99.70;;;;;;5072102;28;20197;-59
2021/04/07 08:48:42;;;;;;;4.90;2.15;;;3.70;99.90;;;;;;5074912;28;20203;-59
2021/04/07 08:51:10;;;;;;;2.58;0.98;;;3.60;99.90;;;;;;5072943;28;20256;-60
2021/04/07 08:53:42;;;;;;;3.17;0.98;;;3.60;99.90;;;;;;5079328;28;20182;-58
2021/04/07 08:56:13;;;;;;;4.78;1.13;;;3.70;99.90;;;;;;5070206;28;20189;-60
2021/04/07 08:58:55;;;;;;;2.47;0.70;;;3.70;99.90;;;;;;5083747;28;20282;-60
2021/04/07 09:01:30;;;;;;;2.22;1.05;;;3.80;99.90;;;;;;5082626;28;20180;-60
2021/04/07 09:04:12;;;;;;;2.30;1.02;;;3.90;99.90;;;;;;5085815;28;20180;-60
2021/04/07 09:06:41;;;;;;;1.92;0.75;;;4.00;99.80;;;;;;5076172;28;20254;-61
2021/04/07 09:09:07;;;;;;;4.85;1.15;;;4.00;99.60;;;;;;5074309;28;20662;-60
2021/04/07 09:11:38;;;;;;;4.18;1.25;;;4.10;99.40;;;;;;5085378;28;20176;-61
2021/04/07 09:14:05;;;;;;;2.65;0.65;;;4.20;99.00;;;;;;5079220;28;20180;-61
2021/04/07 09:16:33;;;;;;;1.50;0.20;;;4.20;98.70;;;;;;5078215;28;20185;-61
2021/04/07 09:19:15;;;;;;;2.50;0.90;;;4.30;98.50;;;;;;5059992;28;20434;-61
2021/04/07 09:21:53;;;;;;;3.05;1.42;;;4.20;98.10;;;;;;5078767;28;20216;-60
2021/04/07 09:24:19;;;;;;;3.30;2.15;;;4.40;97.80;;;;;;5073720;28;20266;-60
2021/04/07 09:26:48;;;;;;;5.35;1.42;;;4.40;97.40;;;;;;5082927;28;20247;-61
2021/04/07 09:29:15;;;;;;;1.60;0.45;;;4.40;97.10;;;;;;5073109;28;20176;-60
2021/04/07 09:31:41;;;;;;;2.70;0.80;;;4.50;96.90;;;;;;5074114;28;20662;-59
2021/04/07 09:34:10;;;;;;;4.38;1.30;;;4.60;96.70;;;;;;5079090;28;20172;-60
2021/04/07 09:36:38;;;;;;;4.82;1.65;;;4.60;96.10;;;;;;5065614;28;21614;-59
2021/04/07 09:39:09;;;;;;;1.50;0.20;;;4.60;96.00;;;;;;5074097;28;20184;-60
2021/04/07 09:41:36;;;;;;;8.88;1.40;;;4.70;95.80;;;;;;5077717;28;20187;-59
2021/04/07 09:44:07;;;;;;;2.90;0.55;;;4.70;96.00;;;;;;5067995;28;20198;-63
2021/04/07 09:46:34;;;;;;;3.25;0.85;;;4.80;95.80;;;;;;5073977;28;20201;-60
2021/04/07 09:49:03;;;;;;;8.07;1.40;;;4.60;96.10;;;;;;5076795;28;20178;-61
2021/04/07 09:51:36;;;;;;;1.65;0.47;;;4.50;95.70;;;;;;5072150;28;20673;-59
2021/04/07 09:54:07;;;;;;;5.57;1.35;;;4.60;95.20;;;;;;5072180;28;20212;-60
2021/04/07 09:56:44;;;;;;;2.80;1.20;;;4.70;94.50;;;;;;5082132;28;20180;-59
2021/04/07 09:59:10;;;;;;;2.33;0.50;;;4.70;94.30;;;;;;5073984;28;20188;-59
2021/04/07 10:01:39;;;;;;;4.70;0.73;;;4.80;94.10;;;;;;5080514;28;20250;-60
2021/04/07 10:04:04;;;;;;;3.78;1.25;;;4.80;93.80;;;;;;5081487;28;20266;-61
2021/04/07 10:06:30;;;;;;;3.70;1.27;;;4.70;94.10;;;;;;5065709;28;20744;-60
2021/04/07 10:09:00;;;;;;;5.47;1.90;;;4.70;94.70;;;;;;5074648;28;20184;-60
2021/04/07 10:11:27;;;;;;;1.55;0.30;;;4.50;95.90;;;;;;5076982;28;20622;-61
2021/04/07 10:13:55;;;;;;;2.35;0.60;;;4.30;97.40;;;;;;5070014;28;20185;-62
2021/04/07 10:16:21;;;;;;;1.50;0.30;;;4.20;98.10;;;;;;5076936;28;20578;-60
2021/04/07 10:18:47;;;;;;;1.60;0.30;;;4.20;98.20;;;;;;5074053;28;20211;-60
2021/04/07 10:21:17;;;;;;;3.20;0.77;;;4.30;98.30;;;;;;5071652;28;20184;-60
2021/04/07 10:23:45;;;;;;;4.43;1.83;;;4.30;98.10;;;;;;5080148;28;20176;-60
2021/04/07 10:26:11;;;;;;;3.08;1.45;;;4.20;98.00;;;;;;5068525;28;20177;-60
2021/04/07 10:28:37;;;;;;;1.67;0.33;;;4.30;98.20;;;;;;5068490;28;20303;-59
2021/04/07 10:31:10;;;;;;;3.30;1.07;;;4.30;98.10;;;;;;5085212;28;20608;-61
2021/04/07 10:33:36;;;;;;;2.85;0.60;;;4.30;98.00;;;;;;5079723;28;20257;-60
2021/04/07 10:36:03;;;;;;;2.53;1.23;;;4.30;98.10;;;;;;5073275;28;20231;-60
2021/04/07 10:38:34;;;;;;;2.47;1.08;;;4.40;98.00;;;;;;5081103;28;20212;-60
2021/04/07 10:41:01;;;;;;;3.40;1.10;;;4.40;97.20;;;;;;5077949;28;20192;-59
2021/04/07 10:43:42;;;;;;;3.97;1.25;;;4.30;97.10;;;;;;5076025;28;20188;-60
2021/04/07 10:46:08;;;;;;;4.75;0.60;;;4.40;97.40;;;;;;5083425;28;20184;-60
2021/04/07 10:48:35;;;;;;;3.17;0.60;;;4.20;98.30;;;;;;5081783;28;20212;-60
2021/04/07 10:51:02;;;;;;;2.05;1.30;;;4.20;99.30;;;;;;5075677;28;20261;-60
2021/04/07 10:53:33;;;;;;;1.95;0.43;;;4.30;99.70;;;;;;5080640;28;20184;-60
2021/04/07 10:56:00;;;;;;;1.80;0.43;;;4.30;99.90;;;;;;5083721;28;20249;-61
2021/04/07 10:58:28;;;;;;;1.77;0.65;;;4.20;99.80;;;;;;5074656;28;20205;-60
2021/04/07 11:00:54;;;;;;;2.97;1.35;;;3.90;99.90;;;;;;5081243;28;20176;-60
2021/04/07 11:03:33;;;;;;;3.08;1.30;;;3.60;99.90;;;;;;5078863;28;20193;-60
2021/04/07 11:05:59;;;;;;;8.27;1.55;;;3.60;99.90;;;;;;5079076;28;20210;-59
2021/04/07 11:08:39;;;;;;;1.50;0.20;;;3.60;99.90;;;;;;5082403;28;20244;-59
2021/04/07 11:11:18;;;;;;;4.30;1.67;;;3.50;99.90;;;;;;5077704;28;20262;-61
2021/04/07 11:13:45;;;;;;;4.25;0.85;;;3.50;99.90;;;;;;5067848;28;20173;-60
2021/04/07 11:16:11;;;;;;;1.88;0.73;;;3.60;99.90;;;;;;5080705;28;20184;-61
2021/04/07 11:18:39;;;;;;;5.50;2.03;;;3.50;99.90;;;;;;5076474;28;20291;-60
2021/04/07 11:21:05;;;;;;;5.07;2.08;;;3.50;99.90;;;;;;5076397;28;20244;-60
2021/04/07 11:23:30;;;;;;;2.40;0.77;;;3.40;99.90;;;;;;5086377;28;20692;-60
2021/04/07 11:25:56;;;;;;;1.57;0.27;;;3.40;99.90;;;;;;5074228;28;20180;-60
2021/04/07 11:28:22;;;;;;;4.40;1.80;;;3.40;99.90;;;;;;5070195;28;20924;-59
2021/04/07 11:33:42;;;;;;;3.63;0.85;;;3.40;99.90;;;;;;5074645;28;20208;-62
2021/04/07 11:36:18;;;;;;;2.35;0.30;;;3.40;99.90;;;;;;5071954;28;20184;-62
2021/04/07 11:38:48;;;;;;;3.15;1.35;;;3.40;99.90;;;;;;5081423;28;20196;-62
2021/04/07 11:44:25;;;;;;;2.93;0.57;;;3.50;99.90;;;;;;5075440;28;20191;-63
2021/04/07 11:46:35;;;;;;;1.50;0.20;;;3.50;99.90;;;;;;5078385;28;20209;-62
2021/04/07 11:49:05;;;;;;;1.58;0.30;;;3.60;99.90;;;;;;5077476;28;20180;-62
2021/04/07 11:51:33;;;;;;;2.15;1.05;;;3.60;99.90;;;;;;5074446;28;20208;-62
2021/04/07 11:53:58;;;;;;;1.60;0.30;;;3.50;99.90;;;;;;5079030;28;20189;-63
2021/04/07 11:56:24;;;;;;;7.00;2.20;;;3.60;99.90;;;;;;5074467;28;20670;-62
2021/04/07 11:58:50;;;;;;;1.60;0.37;;;3.60;99.90;;;;;;5072340;28;20272;-65
2021/04/07 12:01:15;;;;;;;1.50;0.20;;;3.70;99.90;;;;;;5077684;28;20184;-64
2021/04/07 12:03:43;;;;;;;6.43;1.23;;;3.70;99.90;;;;;;5079517;28;20180;-62
2021/04/07 12:06:09;;;;;;;3.38;1.27;;;3.80;99.90;;;;;;5077339;28;20177;-62
2021/04/07 12:08:34;;;;;;;1.50;0.20;;;3.80;99.90;;;;;;5082677;28;20231;-62
2021/04/07 12:11:00;;;;;;;2.77;0.90;;;3.90;99.90;;;;;;5073059;28;20258;-62
2021/04/07 12:13:27;;;;;;;2.10;0.75;;;3.90;99.90;;;;;;5078653;28;20204;-65
2021/04/07 12:15:53;;;;;;;1.60;0.40;;;4.00;99.90;;;;;;5081344;28;20172;-64
2021/04/07 12:18:19;;;;;;;5.87;1.37;;;4.10;99.90;;;;;;5072081;28;20223;-62
2021/04/07 12:20:44;;;;;;;1.90;0.60;;;4.20;99.90;;;;;;5077969;28;20442;-62
2021/04/07 12:23:10;;;;;;;1.60;0.30;;;4.20;99.90;;;;;;5074382;28;20232;-63
2021/04/07 12:25:36;;;;;;;2.10;0.60;;;4.20;99.90;;;;;;5054508;28;20663;-64
2021/04/07 12:28:01;;;;;;;1.80;0.70;;;4.20;99.90;;;;;;5074655;28;20254;-65
2021/04/07 12:30:27;;;;;;;2.00;0.47;;;4.30;99.90;;;;;;5077690;28;20445;-62
2021/04/07 12:32:53;;;;;;;3.07;1.47;;;4.30;99.90;;;;;;5074664;28;20189;-65
2021/04/07 12:35:37;;;;;;;2.40;1.37;;;4.40;99.90;;;;;;5075728;28;20189;-62
2021/04/07 12:38:03;;;;;;;1.90;0.63;;;4.40;99.90;;;;;;5079279;28;20455;-63
2021/04/07 12:40:28;;;;;;;1.50;0.20;;;4.40;99.90;;;;;;5074285;28;20212;-65
2021/04/07 12:42:54;;;;;;;4.53;0.83;;;4.50;99.90;;;;;;5071884;28;20626;-63
2021/04/07 12:45:20;;;;;;;2.30;1.10;;;4.50;99.90;;;;;;5081826;28;20195;-63
2021/04/07 12:47:45;;;;;;;1.93;0.70;;;4.40;99.90;;;;;;5078905;28;20217;-63
2021/04/07 12:50:11;;;;;;;2.53;0.77;;;4.30;99.90;;;;;;5083836;28;20180;-64
2021/04/07 12:52:37;;;;;;;2.33;0.75;;;4.10;99.90;;;;;;5072889;28;20204;-66
2021/04/07 12:55:03;;;;;;;4.00;1.17;;;4.10;99.90;;;;;;5075396;28;20177;-64
2021/04/07 12:57:28;;;;;;;1.50;0.20;;;4.20;99.90;;;;;;5082420;28;20273;-64
2021/04/07 12:59:54;;;;;;;2.57;1.23;;;4.30;99.90;;;;;;5070010;28;20192;-63
2021/04/07 13:02:19;;;;;;;1.97;0.77;;;4.20;99.90;;;;;;5072630;28;20547;-63
2021/04/07 13:04:44;;;;;;;1.50;0.20;;;4.20;99.90;;;;;;5079432;28;20189;-63